Caldwell, ID

4:28 PM MDT on June 26, 2017 (GMT -0600)
Caldwell Industrial | | Change Station

Elev 2431 ft 43.64 °N, 116.64 °W | Updated 32 minutes ago

Clear
Clear
91 °F
Feels Like 91 °F
N
10
Wind Variable Wind from West

Today
High -- | Low -- °F
--% Chance of Precip.
Yesterday
High -- | Low -- °F
Precip. -- in
Pressure 29.75 in
Visibility 10.0 miles
Clouds Clear
Dew Point 52 °F
Humidity 26%
Rainfall 0.00 in
Snow Depth Not available.
6:06 AM 9:32 PM
Waxing Crescent, 11% visible
METAR KEUL 262156Z AUTO 28009KT 10SM CLR 33/11 A2981 RMK AO2 TSB00E15 SLP072 T03280111
Pressure 29.75 in
Visibility 10.0 miles
Clouds Clear
Dew Point 52 °F
Humidity 26%
Rainfall 0.00 in
Snow Depth Not available.
6:06 AM 9:32 PM
Waxing Crescent, 11% visible
METAR KEUL 262156Z AUTO 28009KT 10SM CLR 33/11 A2981 RMK AO2 TSB00E15 SLP072 T03280111

Get Severe Weather Alerts

Thanks for signing up!

Be on the lookout for a verification email in your inbox.

You'll start receiving the daily forecast at 6 AM.

×

10-Day Weather Forecast

Almanac

Astronomy

Jun. 26, 2017 Rise Set
Actual Time
Civil Twilight
Nautical Twilight
Astronomical Twilight
Moon
Length of Visible Light
Length of Day
Tomorrow will be .
, % of the Moon is Illuminated

Today's Extremes

State Highs State Lows

Community

WunderPhotos

Category 6

Welcome to Category 6. This is the collective home for Weather Underground's featured writeups by Dr. Jeff Masters (right), Bob Henson (left), Chris Burt, and other regular contributors.

Nearby

Air Quality

  Air Quality AQ Index Pollutant
Not available.

Snow Depth

Station Depth Elevation

Earthquake Activity

City Distance Mag. Time & Date
Minimum magnitude displayed is 2.5.

Coastal Water Temperatures

Place Temperature

Stations

Nearby Weather Stations

Station Location Temp. Windchill Dew Point Humidity Wind Precip. Elev Updated Type
                   

Watches & Warnings

There are currently no watches in effect.